sensor_id;sensor_type;location;lat;lon;timestamp;pressure;altitude;pressure_sealevel;temperature;humidity
41706;BME280;27385;51.096;17.190;2023-12-04T00:00:47;100970.98;;;-5.62;92.55
41706;BME280;27385;51.096;17.190;2023-12-04T00:04:39;100973.67;;;-5.64;92.73
41706;BME280;27385;51.096;17.190;2023-12-04T00:07:51;100969.73;;;-5.66;92.43
41706;BME280;27385;51.096;17.190;2023-12-04T00:11:24;100972.67;;;-5.73;91.85
41706;BME280;27385;51.096;17.190;2023-12-04T00:14:36;100977.78;;;-5.81;91.87
41706;BME280;27385;51.096;17.190;2023-12-04T00:17:48;100978.39;;;-5.88;91.89
41706;BME280;27385;51.096;17.190;2023-12-04T00:21:40;100975.21;;;-5.91;92.18
41706;BME280;27385;51.096;17.190;2023-12-04T00:24:52;100972.56;;;-5.94;92.10
41706;BME280;27385;51.096;17.190;2023-12-04T00:28:24;100973.91;;;-6.00;91.92
41706;BME280;27385;51.096;17.190;2023-12-04T00:31:37;100971.39;;;-6.04;91.93
41706;BME280;27385;51.096;17.190;2023-12-04T00:35:10;100970.35;;;-6.08;92.11
41706;BME280;27385;51.096;17.190;2023-12-04T00:38:43;100972.79;;;-6.13;91.73
41706;BME280;27385;51.096;17.190;2023-12-04T00:41:34;100979.42;;;-6.18;91.84
41706;BME280;27385;51.096;17.190;2023-12-04T00:45:08;100985.92;;;-6.22;91.90
41706;BME280;27385;51.096;17.190;2023-12-04T00:49:00;100990.61;;;-6.24;92.09
41706;BME280;27385;51.096;17.190;2023-12-04T00:52:31;100990.67;;;-6.24;91.99
41706;BME280;27385;51.096;17.190;2023-12-04T00:56:05;100991.35;;;-6.25;91.76
41706;BME280;27385;51.096;17.190;2023-12-04T00:58:57;100994.37;;;-6.28;91.52
41706;BME280;27385;51.096;17.190;2023-12-04T01:02:15;100996.48;;;-6.33;91.49
41706;BME280;27385;51.096;17.190;2023-12-04T01:05:48;100993.91;;;-6.36;91.65
41706;BME280;27385;51.096;17.190;2023-12-04T01:08:39;100996.25;;;-6.39;91.73
41706;BME280;27385;51.096;17.190;2023-12-04T01:11:33;100995.63;;;-6.42;91.52
41706;BME280;27385;51.096;17.190;2023-12-04T01:14:27;100994.11;;;-6.43;91.79
41706;BME280;27385;51.096;17.190;2023-12-04T01:17:59;100993.08;;;-6.41;91.93
41706;BME280;27385;51.096;17.190;2023-12-04T01:21:32;100991.11;;;-6.42;92.00
41706;BME280;27385;51.096;17.190;2023-12-04T01:25:45;100992.88;;;-6.49;91.30
41706;BME280;27385;51.096;17.190;2023-12-04T01:29:38;100997.11;;;-6.55;91.15
41706;BME280;27385;51.096;17.190;2023-12-04T01:32:30;101001.83;;;-6.59;91.11
41706;BME280;27385;51.096;17.190;2023-12-04T01:35:43;101006.60;;;-6.61;91.48
41706;BME280;27385;51.096;17.190;2023-12-04T01:39:40;101005.94;;;-6.59;91.55
41706;BME280;27385;51.096;17.190;2023-12-04T01:42:32;101004.79;;;-6.59;91.22
41706;BME280;27385;51.096;17.190;2023-12-04T01:46:05;101012.14;;;-6.67;90.45
41706;BME280;27385;51.096;17.190;2023-12-04T01:49:01;101011.78;;;-6.74;90.58
41706;BME280;27385;51.096;17.190;2023-12-04T01:51:56;101010.11;;;-6.79;90.66
41706;BME280;27385;51.096;17.190;2023-12-04T01:55:48;101002.23;;;-6.85;90.63
41706;BME280;27385;51.096;17.190;2023-12-04T01:59:00;101001.20;;;-6.89;90.40
41706;BME280;27385;51.096;17.190;2023-12-04T02:02:13;100998.30;;;-6.95;90.48
41706;BME280;27385;51.096;17.190;2023-12-04T02:05:47;100999.61;;;-6.98;90.47
41706;BME280;27385;51.096;17.190;2023-12-04T02:08:42;100994.89;;;-6.98;91.02
41706;BME280;27385;51.096;17.190;2023-12-04T02:11:34;100990.56;;;-6.92;91.77
41706;BME280;27385;51.096;17.190;2023-12-04T02:14:55;100986.94;;;-6.88;91.67
41706;BME280;27385;51.096;17.190;2023-12-04T02:17:47;100985.25;;;-6.90;90.86
41706;BME280;27385;51.096;17.190;2023-12-04T02:20:39;100983.34;;;-6.95;90.18
41706;BME280;27385;51.096;17.190;2023-12-04T02:23:30;100983.40;;;-7.03;89.54
41706;BME280;27385;51.096;17.190;2023-12-04T02:27:26;100982.47;;;-7.08;89.79
41706;BME280;27385;51.096;17.190;2023-12-04T02:30:44;100986.86;;;-7.09;89.81
41706;BME280;27385;51.096;17.190;2023-12-04T02:34:17;100985.26;;;-7.11;89.75
41706;BME280;27385;51.096;17.190;2023-12-04T02:38:09;100986.59;;;-7.21;89.07
41706;BME280;27385;51.096;17.190;2023-12-04T02:41:01;100982.88;;;-7.26;89.09
41706;BME280;27385;51.096;17.190;2023-12-04T02:44:15;100980.08;;;-7.34;88.79
41706;BME280;27385;51.096;17.190;2023-12-04T02:47:27;100978.36;;;-7.39;88.96
41706;BME280;27385;51.096;17.190;2023-12-04T02:50:39;100979.11;;;-7.43;88.89
41706;BME280;27385;51.096;17.190;2023-12-04T02:54:12;100980.81;;;-7.50;88.45
41706;BME280;27385;51.096;17.190;2023-12-04T02:57:06;100978.38;;;-7.58;88.31
41706;BME280;27385;51.096;17.190;2023-12-04T03:00:21;100977.21;;;-7.66;88.30
41706;BME280;27385;51.096;17.190;2023-12-04T03:03:32;100979.60;;;-7.73;88.34
41706;BME280;27385;51.096;17.190;2023-12-04T03:07:25;100981.39;;;-7.78;88.36
41706;BME280;27385;51.096;17.190;2023-12-04T03:10:56;100978.36;;;-7.86;88.01
41706;BME280;27385;51.096;17.190;2023-12-04T03:14:29;100980.29;;;-7.92;87.89
41706;BME280;27385;51.096;17.190;2023-12-04T03:18:01;100978.27;;;-8.02;87.62
41706;BME280;27385;51.096;17.190;2023-12-04T03:21:13;100980.45;;;-8.06;88.05
41706;BME280;27385;51.096;17.190;2023-12-04T03:24:26;100982.30;;;-8.09;87.88
41706;BME280;27385;51.096;17.190;2023-12-04T03:27:38;100985.24;;;-8.13;87.65
41706;BME280;27385;51.096;17.190;2023-12-04T03:31:53;100986.45;;;-8.21;87.48
41706;BME280;27385;51.096;17.190;2023-12-04T03:35:05;100996.86;;;-8.30;87.30
41706;BME280;27385;51.096;17.190;2023-12-04T03:38:19;100998.60;;;-8.40;87.20
41706;BME280;27385;51.096;17.190;2023-12-04T03:42:11;100998.77;;;-8.47;87.48
41706;BME280;27385;51.096;17.190;2023-12-04T03:45:43;101001.81;;;-8.52;87.55
41706;BME280;27385;51.096;17.190;2023-12-04T03:49:15;101002.98;;;-8.58;86.86
41706;BME280;27385;51.096;17.190;2023-12-04T03:52:09;101002.44;;;-8.66;86.57
41706;BME280;27385;51.096;17.190;2023-12-04T03:55:40;100998.10;;;-8.75;86.48
41706;BME280;27385;51.096;17.190;2023-12-04T03:58:52;100998.48;;;-8.84;86.19
41706;BME280;27385;51.096;17.190;2023-12-04T04:01:46;100998.41;;;-8.92;86.20
41706;BME280;27385;51.096;17.190;2023-12-04T04:04:37;100994.05;;;-8.97;86.29
41706;BME280;27385;51.096;17.190;2023-12-04T04:07:51;100994.52;;;-9.03;86.44
41706;BME280;27385;51.096;17.190;2023-12-04T04:10:46;100991.29;;;-9.07;86.13
41706;BME280;27385;51.096;17.190;2023-12-04T04:14:18;100990.73;;;-9.16;86.02
41706;BME280;27385;51.096;17.190;2023-12-04T04:17:10;100984.86;;;-9.20;86.63
41706;BME280;27385;51.096;17.190;2023-12-04T04:20:24;100984.30;;;-9.18;87.42
41706;BME280;27385;51.096;17.190;2023-12-04T04:23:56;100981.55;;;-9.18;87.23
41706;BME280;27385;51.096;17.190;2023-12-04T04:26:52;100974.17;;;-9.20;86.95
41706;BME280;27385;51.096;17.190;2023-12-04T04:30:24;100971.85;;;-9.19;87.44
41706;BME280;27385;51.096;17.190;2023-12-04T04:34:16;100970.15;;;-9.18;87.21
41706;BME280;27385;51.096;17.190;2023-12-04T04:37:29;100965.69;;;-9.18;87.30
41706;BME280;27385;51.096;17.190;2023-12-04T04:40:40;100964.29;;;-9.16;87.37
